sensor_id;sensor_type;location;lat;lon;timestamp;P1;durP1;ratioP1;P2;durP2;ratioP2
34711;SDS011;20941;42.408;25.634;2022-11-20T00:02:25;17.08;;;6.15;;
34711;SDS011;20941;42.408;25.634;2022-11-20T00:04:50;15.90;;;5.63;;
34711;SDS011;20941;42.408;25.634;2022-11-20T00:07:16;15.88;;;5.68;;
34711;SDS011;20941;42.408;25.634;2022-11-20T00:09:41;16.85;;;6.35;;
34711;SDS011;20941;42.408;25.634;2022-11-20T00:12:07;17.73;;;6.15;;
34711;SDS011;20941;42.408;25.634;2022-11-20T00:14:35;17.17;;;6.30;;
34711;SDS011;20941;42.408;25.634;2022-11-20T00:17:01;16.38;;;6.10;;
34711;SDS011;20941;42.408;25.634;2022-11-20T00:19:26;14.20;;;6.35;;
34711;SDS011;20941;42.408;25.634;2022-11-20T00:21:52;17.45;;;5.85;;
34711;SDS011;20941;42.408;25.634;2022-11-20T00:24:18;16.42;;;5.55;;
34711;SDS011;20941;42.408;25.634;2022-11-20T00:26:44;10.75;;;5.40;;
34711;SDS011;20941;42.408;25.634;2022-11-20T00:29:10;16.13;;;4.70;;
34711;SDS011;20941;42.408;25.634;2022-11-20T00:31:35;14.63;;;4.43;;
34711;SDS011;20941;42.408;25.634;2022-11-20T00:34:01;13.95;;;4.70;;
34711;SDS011;20941;42.408;25.634;2022-11-20T00:36:27;18.15;;;5.03;;
34711;SDS011;20941;42.408;25.634;2022-11-20T00:38:54;13.27;;;5.18;;
34711;SDS011;20941;42.408;25.634;2022-11-20T00:41:21;16.05;;;5.03;;
34711;SDS011;20941;42.408;25.634;2022-11-20T00:43:54;17.90;;;5.53;;
34711;SDS011;20941;42.408;25.634;2022-11-20T00:46:21;16.73;;;5.40;;
34711;SDS011;20941;42.408;25.634;2022-11-20T00:48:48;21.02;;;5.95;;
34711;SDS011;20941;42.408;25.634;2022-11-20T00:51:14;15.95;;;5.35;;
34711;SDS011;20941;42.408;25.634;2022-11-20T00:53:42;17.48;;;6.13;;
34711;SDS011;20941;42.408;25.634;2022-11-20T00:56:12;13.68;;;5.65;;
34711;SDS011;20941;42.408;25.634;2022-11-20T00:58:39;15.25;;;4.85;;
34711;SDS011;20941;42.408;25.634;2022-11-20T01:01:13;16.13;;;4.93;;
34711;SDS011;20941;42.408;25.634;2022-11-20T01:03:43;21.15;;;4.78;;
34711;SDS011;20941;42.408;25.634;2022-11-20T01:08:39;12.48;;;3.80;;
34711;SDS011;20941;42.408;25.634;2022-11-20T01:11:06;14.65;;;4.88;;
34711;SDS011;20941;42.408;25.634;2022-11-20T01:13:34;14.40;;;4.15;;
34711;SDS011;20941;42.408;25.634;2022-11-20T01:16:04;13.13;;;4.07;;
34711;SDS011;20941;42.408;25.634;2022-11-20T01:18:31;9.57;;;3.50;;
34711;SDS011;20941;42.408;25.634;2022-11-20T01:21:01;14.98;;;4.78;;
34711;SDS011;20941;42.408;25.634;2022-11-20T01:23:31;14.63;;;4.32;;
34711;SDS011;20941;42.408;25.634;2022-11-20T01:25:59;15.88;;;4.00;;
34711;SDS011;20941;42.408;25.634;2022-11-20T01:28:26;21.00;;;4.53;;
34711;SDS011;20941;42.408;25.634;2022-11-20T01:30:52;16.33;;;4.57;;
34711;SDS011;20941;42.408;25.634;2022-11-20T01:33:17;14.68;;;4.75;;
34711;SDS011;20941;42.408;25.634;2022-11-20T01:35:43;22.83;;;5.20;;
34711;SDS011;20941;42.408;25.634;2022-11-20T01:38:08;15.68;;;4.03;;
34711;SDS011;20941;42.408;25.634;2022-11-20T01:40:33;14.38;;;4.13;;
34711;SDS011;20941;42.408;25.634;2022-11-20T01:43:17;12.57;;;3.97;;
34711;SDS011;20941;42.408;25.634;2022-11-20T01:46:06;12.48;;;4.28;;
34711;SDS011;20941;42.408;25.634;2022-11-20T01:51:52;16.85;;;4.47;;
34711;SDS011;20941;42.408;25.634;2022-11-20T01:54:30;17.10;;;4.85;;
34711;SDS011;20941;42.408;25.634;2022-11-20T01:57:04;17.70;;;4.78;;
34711;SDS011;20941;42.408;25.634;2022-11-20T01:59:33;13.40;;;4.07;;
34711;SDS011;20941;42.408;25.634;2022-11-20T02:02:02;13.40;;;4.05;;
34711;SDS011;20941;42.408;25.634;2022-11-20T02:04:28;20.00;;;4.60;;
34711;SDS011;20941;42.408;25.634;2022-11-20T02:06:55;17.45;;;4.30;;
34711;SDS011;20941;42.408;25.634;2022-11-20T02:09:24;20.05;;;4.75;;
34711;SDS011;20941;42.408;25.634;2022-11-20T02:11:50;12.35;;;4.10;;
34711;SDS011;20941;42.408;25.634;2022-11-20T02:14:16;18.00;;;5.15;;
34711;SDS011;20941;42.408;25.634;2022-11-20T02:16:46;13.77;;;5.65;;
34711;SDS011;20941;42.408;25.634;2022-11-20T02:19:17;22.55;;;5.38;;
34711;SDS011;20941;42.408;25.634;2022-11-20T02:24:21;11.27;;;3.88;;
34711;SDS011;20941;42.408;25.634;2022-11-20T02:26:52;16.23;;;4.20;;
34711;SDS011;20941;42.408;25.634;2022-11-20T02:29:40;13.13;;;4.28;;
34711;SDS011;20941;42.408;25.634;2022-11-20T02:35:07;11.98;;;3.58;;
34711;SDS011;20941;42.408;25.634;2022-11-20T02:37:35;10.77;;;3.42;;
34711;SDS011;20941;42.408;25.634;2022-11-20T02:40:04;15.68;;;3.88;;
34711;SDS011;20941;42.408;25.634;2022-11-20T02:42:30;12.85;;;3.20;;
34711;SDS011;20941;42.408;25.634;2022-11-20T02:44:55;13.40;;;3.63;;
34711;SDS011;20941;42.408;25.634;2022-11-20T02:47:21;14.48;;;3.50;;
34711;SDS011;20941;42.408;25.634;2022-11-20T02:49:46;11.55;;;2.92;;
34711;SDS011;20941;42.408;25.634;2022-11-20T02:52:12;8.95;;;3.00;;
34711;SDS011;20941;42.408;25.634;2022-11-20T02:54:37;15.18;;;3.53;;
34711;SDS011;20941;42.408;25.634;2022-11-20T02:57:03;14.25;;;3.08;;
34711;SDS011;20941;42.408;25.634;2022-11-20T02:59:28;14.60;;;3.70;;
34711;SDS011;20941;42.408;25.634;2022-11-20T03:01:54;11.45;;;3.30;;
34711;SDS011;20941;42.408;25.634;2022-11-20T03:04:19;13.80;;;3.15;;
34711;SDS011;20941;42.408;25.634;2022-11-20T03:06:45;12.40;;;3.17;;
34711;SDS011;20941;42.408;25.634;2022-11-20T03:09:10;13.00;;;3.80;;
34711;SDS011;20941;42.408;25.634;2022-11-20T03:11:36;11.88;;;3.25;;
34711;SDS011;20941;42.408;25.634;2022-11-20T03:14:03;12.55;;;3.10;;
34711;SDS011;20941;42.408;25.634;2022-11-20T03:16:30;14.82;;;3.03;;
34711;SDS011;20941;42.408;25.634;2022-11-20T03:18:56;18.90;;;3.38;;
34711;SDS011;20941;42.408;25.634;2022-11-20T03:21:22;10.02;;;2.63;;
34711;SDS011;20941;42.408;25.634;2022-11-20T03:23:47;10.68;;;3.55;;
34711;SDS011;20941;42.408;25.634;2022-11-20T03:26:15;12.02;;;2.65;;
34711;SDS011;20941;42.408;25.634;2022-11-20T03:28:51;14.18;;;4.97;;
34711;SDS011;20941;42.408;25.634;2022-11-20T03:31:18;9.17;;;3.00;;
34711;SDS011;20941;42.408;25.634;2022-11-20T03:33:46;12.80;;;3.28;;
34711;SDS011;20941;42.408;25.634;2022-11-20T03:36:13;8.68;;;3.00;;
34711;SDS011;20941;42.408;25.634;2022-11-20T03:38:40;9.07;;;2.83;;
34711;SDS011;20941;42.408;25.634;2022-11-20T03:41:16;13.90;;;3.20;;
34711;SDS011;20941;42.408;25.634;2022-11-20T03:43:47;15.77;;;3.45;;
34711;SDS011;20941;42.408;25.634;2022-11-20T03:46:15;9.63;;;2.92;;
34711;SDS011;20941;42.408;25.634;2022-11-20T03:48:41;13.65;;;3.08;;
34711;SDS011;20941;42.408;25.634;2022-11-20T03:51:11;15.30;;;3.25;;
34711;SDS011;20941;42.408;25.634;2022-11-20T03:53:37;13.18;;;3.17;;
34711;SDS011;20941;42.408;25.634;2022-11-20T03:56:03;10.32;;;2.92;;
34711;SDS011;20941;42.408;25.634;2022-11-20T03:58:30;9.68;;;3.25;;
34711;SDS011;20941;42.408;25.634;2022-11-20T04:00:56;14.18;;;3.20;;
34711;SDS011;20941;42.408;25.634;2022-11-20T04:03:21;13.68;;;3.13;;
34711;SDS011;20941;42.408;25.634;2022-11-20T04:05:47;14.40;;;2.72;;
34711;SDS011;20941;42.408;25.634;2022-11-20T04:08:12;12.23;;;2.90;;
34711;SDS011;20941;42.408;25.634;2022-11-20T04:10:38;10.48;;;2.83;;
34711;SDS011;20941;42.408;25.634;2022-11-20T04:13:03;10.52;;;2.33;;
34711;SDS011;20941;42.408;25.634;2022-11-20T04:15:29;10.73;;;2.47;;
34711;SDS011;20941;42.408;25.634;2022-11-20T04:17:54;11.70;;;3.00;;
34711;SDS011;20941;42.408;25.634;2022-11-20T04:20:20;12.65;;;2.60;;
34711;SDS011;20941;42.408;25.634;2022-11-20T04:22:46;10.65;;;2.95;;
34711;SDS011;20941;42.408;25.634;2022-11-20T04:25:11;11.20;;;3.00;;
34711;SDS011;20941;42.408;25.634;2022-11-20T04:27:37;11.07;;;2.63;;
34711;SDS011;20941;42.408;25.634;2022-11-20T04:30:02;8.88;;;2.70;;
34711;SDS011;20941;42.408;25.634;2022-11-20T04:32:28;13.60;;;2.67;;
34711;SDS011;20941;42.408;25.634;2022-11-20T04:34:54;12.15;;;2.95;;
34711;SDS011;20941;42.408;25.634;2022-11-20T04:37:19;10.98;;;2.83;;
34711;SDS011;20941;42.408;25.634;2022-11-20T04:39:45;10.02;;;2.70;;
34711;SDS011;20941;42.408;25.634;2022-11-20T04:42:10;8.70;;;2.97;;
34711;SDS011;20941;42.408;25.634;2022-11-20T04:44:54;12.57;;;2.92;;
34711;SDS011;20941;42.408;25.634;2022-11-20T04:47:20;9.60;;;2.70;;
34711;SDS011;20941;42.408;25.634;2022-11-20T04:49:45;14.52;;;3.05;;
34711;SDS011;20941;42.408;25.634;2022-11-20T04:52:11;8.77;;;2.60;;
34711;SDS011;20941;42.408;25.634;2022-11-20T04:54:37;14.98;;;3.00;;
34711;SDS011;20941;42.408;25.634;2022-11-20T04:57:02;6.57;;;2.50;;
34711;SDS011;20941;42.408;25.634;2022-11-20T04:59:28;8.05;;;3.08;;
34711;SDS011;20941;42.408;25.634;2022-11-20T05:01:53;10.25;;;2.90;;
34711;SDS011;20941;42.408;25.634;2022-11-20T05:04:19;8.77;;;2.72;;
34711;SDS011;20941;42.408;25.634;2022-11-20T05:06:44;13.75;;;3.28;;
34711;SDS011;20941;42.408;25.634;2022-11-20T05:09:11;9.98;;;2.50;;
34711;SDS011;20941;42.408;25.634;2022-11-20T05:11:37;9.00;;;2.97;;
34711;SDS011;20941;42.408;25.634;2022-11-20T05:14:03;9.60;;;3.00;;
34711;SDS011;20941;42.408;25.634;2022-11-20T05:16:28;9.25;;;3.05;;
34711;SDS011;20941;42.408;25.634;2022-11-20T05:18:54;14.75;;;3.67;;
34711;SDS011;20941;42.408;25.634;2022-11-20T05:21:20;13.38;;;3.78;;
34711;SDS011;20941;42.408;25.634;2022-11-20T05:23:45;12.98;;;3.85;;
34711;SDS011;20941;42.408;25.634;2022-11-20T05:26:12;17.63;;;3.90;;
34711;SDS011;20941;42.408;25.634;2022-11-20T05:28:47;15.75;;;6.10;;
34711;SDS011;20941;42.408;25.634;2022-11-20T05:31:14;13.52;;;6.68;;
34711;SDS011;20941;42.408;25.634;2022-11-20T05:33:41;15.70;;;6.15;;
34711;SDS011;20941;42.408;25.634;2022-11-20T05:36:08;14.50;;;4.20;;
34711;SDS011;20941;42.408;25.634;2022-11-20T05:38:34;14.10;;;5.50;;
34711;SDS011;20941;42.408;25.634;2022-11-20T05:41:13;10.27;;;4.78;;
34711;SDS011;20941;42.408;25.634;2022-11-20T05:43:44;15.82;;;5.60;;
34711;SDS011;20941;42.408;25.634;2022-11-20T05:46:12;22.52;;;6.45;;
34711;SDS011;20941;42.408;25.634;2022-11-20T05:48:40;16.33;;;6.18;;
34711;SDS011;20941;42.408;25.634;2022-11-20T05:51:07;21.20;;;6.93;;
34711;SDS011;20941;42.408;25.634;2022-11-20T05:53:35;18.23;;;5.38;;
34711;SDS011;20941;42.408;25.634;2022-11-20T05:56:02;19.48;;;9.88;;
34711;SDS011;20941;42.408;25.634;2022-11-20T05:58:30;23.48;;;13.63;;
34711;SDS011;20941;42.408;25.634;2022-11-20T06:01:16;24.23;;;12.60;;
34711;SDS011;20941;42.408;25.634;2022-11-20T06:03:46;19.98;;;11.35;;
34711;SDS011;20941;42.408;25.634;2022-11-20T06:06:13;20.70;;;10.55;;
34711;SDS011;20941;42.408;25.634;2022-11-20T06:08:40;17.02;;;9.50;;
34711;SDS011;20941;42.408;25.634;2022-11-20T06:11:07;21.42;;;8.40;;
34711;SDS011;20941;42.408;25.634;2022-11-20T06:13:34;14.77;;;5.65;;
34711;SDS011;20941;42.408;25.634;2022-11-20T06:16:00;16.23;;;7.35;;
34711;SDS011;20941;42.408;25.634;2022-11-20T06:18:26;21.70;;;7.35;;
34711;SDS011;20941;42.408;25.634;2022-11-20T06:20:59;17.48;;;6.40;;
34711;SDS011;20941;42.408;25.634;2022-11-20T06:23:27;17.90;;;6.45;;
34711;SDS011;20941;42.408;25.634;2022-11-20T06:25:53;16.63;;;6.82;;
34711;SDS011;20941;42.408;25.634;2022-11-20T06:28:19;17.23;;;6.65;;
34711;SDS011;20941;42.408;25.634;2022-11-20T06:30:45;18.23;;;5.38;;
34711;SDS011;20941;42.408;25.634;2022-11-20T06:33:11;17.00;;;4.45;;
34711;SDS011;20941;42.408;25.634;2022-11-20T06:35:36;12.60;;;4.03;;
34711;SDS011;20941;42.408;25.634;2022-11-20T06:38:01;15.32;;;4.50;;
34711;SDS011;20941;42.408;25.634;2022-11-20T06:40:27;19.23;;;7.85;;
34711;SDS011;20941;42.408;25.634;2022-11-20T06:42:53;22.42;;;12.15;;
34711;SDS011;20941;42.408;25.634;2022-11-20T06:45:19;25.90;;;12.80;;
34711;SDS011;20941;42.408;25.634;2022-11-20T06:47:45;44.42;;;30.73;;
34711;SDS011;20941;42.408;25.634;2022-11-20T06:50:11;80.22;;;55.58;;
34711;SDS011;20941;42.408;25.634;2022-11-20T06:52:36;54.85;;;35.35;;
34711;SDS011;20941;42.408;25.634;2022-11-20T06:55:02;42.55;;;28.55;;
34711;SDS011;20941;42.408;25.634;2022-11-20T06:57:28;34.85;;;19.38;;
34711;SDS011;20941;42.408;25.634;2022-11-20T06:59:53;33.70;;;17.30;;
34711;SDS011;20941;42.408;25.634;2022-11-20T07:02:18;27.48;;;9.40;;
34711;SDS011;20941;42.408;25.634;2022-11-20T07:04:44;24.55;;;8.48;;
34711;SDS011;20941;42.408;25.634;2022-11-20T07:07:09;20.73;;;6.05;;
34711;SDS011;20941;42.408;25.634;2022-11-20T07:09:35;21.42;;;5.85;;
34711;SDS011;20941;42.408;25.634;2022-11-20T07:12:00;16.70;;;6.03;;
34711;SDS011;20941;42.408;25.634;2022-11-20T07:14:26;15.27;;;5.35;;
34711;SDS011;20941;42.408;25.634;2022-11-20T07:16:54;21.02;;;5.55;;
34711;SDS011;20941;42.408;25.634;2022-11-20T07:19:20;15.85;;;4.13;;
34711;SDS011;20941;42.408;25.634;2022-11-20T07:21:46;15.68;;;4.25;;
34711;SDS011;20941;42.408;25.634;2022-11-20T07:24:11;12.85;;;4.43;;
34711;SDS011;20941;42.408;25.634;2022-11-20T07:26:37;15.43;;;3.70;;
34711;SDS011;20941;42.408;25.634;2022-11-20T07:29:02;14.73;;;4.18;;
34711;SDS011;20941;42.408;25.634;2022-11-20T07:31:28;13.60;;;3.60;;
34711;SDS011;20941;42.408;25.634;2022-11-20T07:33:54;15.90;;;4.10;;
34711;SDS011;20941;42.408;25.634;2022-11-20T07:36:19;15.20;;;4.00;;
34711;SDS011;20941;42.408;25.634;2022-11-20T07:38:45;17.45;;;4.20;;
34711;SDS011;20941;42.408;25.634;2022-11-20T07:41:10;16.73;;;3.45;;
34711;SDS011;20941;42.408;25.634;2022-11-20T07:43:36;17.27;;;3.92;;
34711;SDS011;20941;42.408;25.634;2022-11-20T07:46:01;15.70;;;4.00;;
34711;SDS011;20941;42.408;25.634;2022-11-20T07:48:27;11.48;;;3.70;;
34711;SDS011;20941;42.408;25.634;2022-11-20T07:50:55;14.10;;;3.65;;
34711;SDS011;20941;42.408;25.634;2022-11-20T07:53:22;16.77;;;3.80;;
34711;SDS011;20941;42.408;25.634;2022-11-20T07:55:48;13.27;;;3.65;;
34711;SDS011;20941;42.408;25.634;2022-11-20T07:58:13;9.15;;;3.25;;
34711;SDS011;20941;42.408;25.634;2022-11-20T08:00:39;15.40;;;4.10;;
34711;SDS011;20941;42.408;25.634;2022-11-20T08:03:05;12.07;;;3.38;;
34711;SDS011;20941;42.408;25.634;2022-11-20T08:05:31;13.35;;;3.35;;
34711;SDS011;20941;42.408;25.634;2022-11-20T08:07:57;11.00;;;3.05;;
34711;SDS011;20941;42.408;25.634;2022-11-20T08:10:22;13.57;;;3.72;;
34711;SDS011;20941;42.408;25.634;2022-11-20T08:12:49;10.35;;;3.20;;
34711;SDS011;20941;42.408;25.634;2022-11-20T08:15:34;16.70;;;3.67;;
34711;SDS011;20941;42.408;25.634;2022-11-20T08:18:01;15.27;;;3.38;;
34711;SDS011;20941;42.408;25.634;2022-11-20T08:20:29;11.43;;;2.90;;
34711;SDS011;20941;42.408;25.634;2022-11-20T08:23:01;14.75;;;3.70;;
34711;SDS011;20941;42.408;25.634;2022-11-20T08:25:31;12.75;;;2.63;;
34711;SDS011;20941;42.408;25.634;2022-11-20T08:28:01;15.43;;;2.92;;
34711;SDS011;20941;42.408;25.634;2022-11-20T08:30:29;8.55;;;2.63;;
34711;SDS011;20941;42.408;25.634;2022-11-20T08:32:54;15.32;;;4.32;;
34711;SDS011;20941;42.408;25.634;2022-11-20T08:35:32;14.63;;;3.67;;
34711;SDS011;20941;42.408;25.634;2022-11-20T08:37:58;9.63;;;2.70;;
34711;SDS011;20941;42.408;25.634;2022-11-20T08:40:23;16.42;;;3.22;;
34711;SDS011;20941;42.408;25.634;2022-11-20T08:42:49;14.27;;;3.08;;
34711;SDS011;20941;42.408;25.634;2022-11-20T08:45:16;10.02;;;2.92;;
34711;SDS011;20941;42.408;25.634;2022-11-20T08:47:43;23.80;;;3.58;;
34711;SDS011;20941;42.408;25.634;2022-11-20T08:50:09;11.55;;;3.00;;
34711;SDS011;20941;42.408;25.634;2022-11-20T08:52:36;10.05;;;2.80;;
34711;SDS011;20941;42.408;25.634;2022-11-20T08:55:02;12.52;;;2.90;;
34711;SDS011;20941;42.408;25.634;2022-11-20T08:57:30;9.57;;;2.72;;
34711;SDS011;20941;42.408;25.634;2022-11-20T08:59:57;10.82;;;3.28;;
34711;SDS011;20941;42.408;25.634;2022-11-20T09:02:22;19.13;;;3.40;;
34711;SDS011;20941;42.408;25.634;2022-11-20T09:04:48;13.77;;;3.25;;
34711;SDS011;20941;42.408;25.634;2022-11-20T09:07:13;9.55;;;2.90;;
34711;SDS011;20941;42.408;25.634;2022-11-20T09:09:39;15.73;;;2.50;;
34711;SDS011;20941;42.408;25.634;2022-11-20T09:12:04;10.23;;;2.75;;
34711;SDS011;20941;42.408;25.634;2022-11-20T09:14:30;12.48;;;2.45;;
34711;SDS011;20941;42.408;25.634;2022-11-20T09:17:14;18.52;;;2.40;;
34711;SDS011;20941;42.408;25.634;2022-11-20T09:19:39;13.13;;;2.40;;
34711;SDS011;20941;42.408;25.634;2022-11-20T09:22:05;11.90;;;2.47;;
34711;SDS011;20941;42.408;25.634;2022-11-20T09:24:31;12.25;;;2.88;;
34711;SDS011;20941;42.408;25.634;2022-11-20T09:26:56;15.57;;;2.67;;
34711;SDS011;20941;42.408;25.634;2022-11-20T09:29:22;11.30;;;2.85;;
34711;SDS011;20941;42.408;25.634;2022-11-20T09:31:47;10.63;;;2.47;;
34711;SDS011;20941;42.408;25.634;2022-11-20T09:34:13;12.98;;;3.30;;
34711;SDS011;20941;42.408;25.634;2022-11-20T09:36:38;20.05;;;3.35;;
34711;SDS011;20941;42.408;25.634;2022-11-20T09:39:04;14.77;;;3.25;;
34711;SDS011;20941;42.408;25.634;2022-11-20T09:47:12;16.25;;;3.40;;
34711;SDS011;20941;42.408;25.634;2022-11-20T09:55:18;18.60;;;3.75;;
34711;SDS011;20941;42.408;25.634;2022-11-20T09:57:45;16.77;;;3.45;;
34711;SDS011;20941;42.408;25.634;2022-11-20T10:00:13;16.55;;;3.67;;
34711;SDS011;20941;42.408;25.634;2022-11-20T10:05:21;16.02;;;3.33;;
34711;SDS011;20941;42.408;25.634;2022-11-20T10:10:40;14.50;;;3.38;;
34711;SDS011;20941;42.408;25.634;2022-11-20T10:21:34;17.30;;;2.88;;
34711;SDS011;20941;42.408;25.634;2022-11-20T10:32:36;17.67;;;3.20;;
34711;SDS011;20941;42.408;25.634;2022-11-20T10:35:50;15.85;;;3.00;;
34711;SDS011;20941;42.408;25.634;2022-11-20T10:38:23;16.00;;;2.78;;
34711;SDS011;20941;42.408;25.634;2022-11-20T10:40:59;15.40;;;2.50;;
34711;SDS011;20941;42.408;25.634;2022-11-20T10:43:46;17.00;;;3.33;;
34711;SDS011;20941;42.408;25.634;2022-11-20T10:46:20;14.65;;;2.85;;
34711;SDS011;20941;42.408;25.634;2022-11-20T10:48:49;19.08;;;4.43;;
34711;SDS011;20941;42.408;25.634;2022-11-20T10:54:09;13.50;;;3.13;;
34711;SDS011;20941;42.408;25.634;2022-11-20T10:56:48;22.05;;;3.75;;
34711;SDS011;20941;42.408;25.634;2022-11-20T11:02:20;12.75;;;2.60;;
34711;SDS011;20941;42.408;25.634;2022-11-20T11:04:48;17.15;;;3.28;;
34711;SDS011;20941;42.408;25.634;2022-11-20T11:09:56;19.65;;;3.55;;
34711;SDS011;20941;42.408;25.634;2022-11-20T11:12:24;29.73;;;3.38;;
34711;SDS011;20941;42.408;25.634;2022-11-20T11:14:52;27.75;;;4.55;;
34711;SDS011;20941;42.408;25.634;2022-11-20T11:20:03;23.38;;;3.85;;
34711;SDS011;20941;42.408;25.634;2022-11-20T11:22:52;20.83;;;3.45;;
34711;SDS011;20941;42.408;25.634;2022-11-20T11:25:23;23.25;;;3.72;;
34711;SDS011;20941;42.408;25.634;2022-11-20T11:27:49;20.42;;;3.28;;
34711;SDS011;20941;42.408;25.634;2022-11-20T11:30:17;27.83;;;3.95;;
34711;SDS011;20941;42.408;25.634;2022-11-20T11:32:45;22.25;;;3.85;;
34711;SDS011;20941;42.408;25.634;2022-11-20T11:35:32;28.02;;;3.83;;
34711;SDS011;20941;42.408;25.634;2022-11-20T11:38:05;25.58;;;4.10;;
34711;SDS011;20941;42.408;25.634;2022-11-20T11:40:36;24.92;;;3.17;;
34711;SDS011;20941;42.408;25.634;2022-11-20T11:43:05;25.00;;;3.15;;
34711;SDS011;20941;42.408;25.634;2022-11-20T11:45:52;21.33;;;3.17;;
34711;SDS011;20941;42.408;25.634;2022-11-20T11:48:19;23.67;;;3.08;;
34711;SDS011;20941;42.408;25.634;2022-11-20T11:50:49;15.77;;;2.72;;
34711;SDS011;20941;42.408;25.634;2022-11-20T11:53:17;17.33;;;2.80;;
34711;SDS011;20941;42.408;25.634;2022-11-20T11:56:07;20.35;;;3.17;;
34711;SDS011;20941;42.408;25.634;2022-11-20T11:58:46;17.65;;;2.80;;
34711;SDS011;20941;42.408;25.634;2022-11-20T12:09:10;17.60;;;3.00;;
34711;SDS011;20941;42.408;25.634;2022-11-20T12:17:02;20.67;;;3.08;;
34711;SDS011;20941;42.408;25.634;2022-11-20T12:19:33;22.25;;;3.92;;
34711;SDS011;20941;42.408;25.634;2022-11-20T12:41:45;20.33;;;3.83;;
34711;SDS011;20941;42.408;25.634;2022-11-20T12:45:17;27.35;;;3.72;;
34711;SDS011;20941;42.408;25.634;2022-11-20T12:50:43;23.42;;;3.65;;
34711;SDS011;20941;42.408;25.634;2022-11-20T13:00:42;23.85;;;4.00;;
34711;SDS011;20941;42.408;25.634;2022-11-20T13:03:34;25.65;;;3.72;;
34711;SDS011;20941;42.408;25.634;2022-11-20T13:06:18;26.02;;;3.47;;
34711;SDS011;20941;42.408;25.634;2022-11-20T13:08:48;28.63;;;3.40;;
34711;SDS011;20941;42.408;25.634;2022-11-20T13:11:21;22.17;;;3.38;;
34711;SDS011;20941;42.408;25.634;2022-11-20T13:19:13;22.40;;;3.83;;
34711;SDS011;20941;42.408;25.634;2022-11-20T13:21:45;28.20;;;5.05;;
34711;SDS011;20941;42.408;25.634;2022-11-20T13:26:59;26.73;;;4.07;;
34711;SDS011;20941;42.408;25.634;2022-11-20T13:29:27;23.40;;;3.75;;
34711;SDS011;20941;42.408;25.634;2022-11-20T13:32:02;18.50;;;3.78;;
34711;SDS011;20941;42.408;25.634;2022-11-20T13:34:30;28.98;;;4.07;;
34711;SDS011;20941;42.408;25.634;2022-11-20T13:36:56;25.85;;;4.57;;
34711;SDS011;20941;42.408;25.634;2022-11-20T13:39:35;28.20;;;4.70;;
34711;SDS011;20941;42.408;25.634;2022-11-20T13:44:37;36.85;;;4.85;;
34711;SDS011;20941;42.408;25.634;2022-11-20T13:47:17;23.38;;;4.07;;
34711;SDS011;20941;42.408;25.634;2022-11-20T13:49:47;33.75;;;3.92;;
34711;SDS011;20941;42.408;25.634;2022-11-20T14:00:25;25.95;;;4.88;;
34711;SDS011;20941;42.408;25.634;2022-11-20T14:05:34;32.35;;;4.25;;
34711;SDS011;20941;42.408;25.634;2022-11-20T14:08:28;25.35;;;4.32;;
34711;SDS011;20941;42.408;25.634;2022-11-20T14:11:05;23.00;;;3.95;;
34711;SDS011;20941;42.408;25.634;2022-11-20T14:13:38;28.25;;;5.55;;
34711;SDS011;20941;42.408;25.634;2022-11-20T14:16:04;39.53;;;4.55;;
34711;SDS011;20941;42.408;25.634;2022-11-20T14:18:29;25.95;;;3.92;;
34711;SDS011;20941;42.408;25.634;2022-11-20T14:20:55;37.47;;;4.00;;
34711;SDS011;20941;42.408;25.634;2022-11-20T14:23:25;27.45;;;4.32;;
34711;SDS011;20941;42.408;25.634;2022-11-20T14:25:52;41.55;;;5.70;;
34711;SDS011;20941;42.408;25.634;2022-11-20T14:28:25;26.63;;;3.90;;
34711;SDS011;20941;42.408;25.634;2022-11-20T14:30:52;29.88;;;4.57;;
34711;SDS011;20941;42.408;25.634;2022-11-20T14:33:20;29.70;;;4.30;;
34711;SDS011;20941;42.408;25.634;2022-11-20T14:35:53;28.20;;;4.25;;
34711;SDS011;20941;42.408;25.634;2022-11-20T14:38:25;28.90;;;3.95;;
34711;SDS011;20941;42.408;25.634;2022-11-20T14:40:52;28.83;;;5.22;;
34711;SDS011;20941;42.408;25.634;2022-11-20T14:43:19;43.72;;;5.88;;
34711;SDS011;20941;42.408;25.634;2022-11-20T14:45:52;35.75;;;4.88;;
34711;SDS011;20941;42.408;25.634;2022-11-20T14:48:24;26.35;;;4.47;;
34711;SDS011;20941;42.408;25.634;2022-11-20T14:50:55;27.23;;;4.80;;
34711;SDS011;20941;42.408;25.634;2022-11-20T14:53:24;35.28;;;5.50;;
34711;SDS011;20941;42.408;25.634;2022-11-20T14:56:00;30.23;;;4.85;;
34711;SDS011;20941;42.408;25.634;2022-11-20T14:58:30;28.70;;;4.20;;
34711;SDS011;20941;42.408;25.634;2022-11-20T15:01:02;35.97;;;5.35;;
34711;SDS011;20941;42.408;25.634;2022-11-20T15:03:39;28.00;;;4.68;;
34711;SDS011;20941;42.408;25.634;2022-11-20T15:06:06;30.10;;;5.28;;
34711;SDS011;20941;42.408;25.634;2022-11-20T15:08:35;31.38;;;4.82;;
34711;SDS011;20941;42.408;25.634;2022-11-20T15:11:01;33.85;;;5.00;;
34711;SDS011;20941;42.408;25.634;2022-11-20T15:13:31;26.35;;;4.32;;
34711;SDS011;20941;42.408;25.634;2022-11-20T15:16:02;34.50;;;5.22;;
34711;SDS011;20941;42.408;25.634;2022-11-20T15:18:32;32.35;;;4.93;;
34711;SDS011;20941;42.408;25.634;2022-11-20T15:21:03;34.17;;;5.10;;
34711;SDS011;20941;42.408;25.634;2022-11-20T15:23:35;41.13;;;5.32;;
34711;SDS011;20941;42.408;25.634;2022-11-20T15:26:01;32.00;;;4.93;;
34711;SDS011;20941;42.408;25.634;2022-11-20T15:28:30;30.20;;;5.25;;
34711;SDS011;20941;42.408;25.634;2022-11-20T15:30:58;34.40;;;5.22;;
34711;SDS011;20941;42.408;25.634;2022-11-20T15:33:24;29.50;;;5.25;;
34711;SDS011;20941;42.408;25.634;2022-11-20T15:35:50;29.35;;;4.90;;
34711;SDS011;20941;42.408;25.634;2022-11-20T15:38:15;25.83;;;3.55;;
34711;SDS011;20941;42.408;25.634;2022-11-20T15:40:41;42.60;;;4.78;;
34711;SDS011;20941;42.408;25.634;2022-11-20T15:43:06;25.63;;;4.85;;
34711;SDS011;20941;42.408;25.634;2022-11-20T15:45:54;30.92;;;5.10;;
34711;SDS011;20941;42.408;25.634;2022-11-20T15:48:21;34.47;;;5.50;;
34711;SDS011;20941;42.408;25.634;2022-11-20T15:51:02;30.42;;;5.15;;
34711;SDS011;20941;42.408;25.634;2022-11-20T15:53:38;39.08;;;5.13;;
34711;SDS011;20941;42.408;25.634;2022-11-20T15:56:05;37.47;;;5.82;;
34711;SDS011;20941;42.408;25.634;2022-11-20T15:58:31;38.65;;;4.70;;
34711;SDS011;20941;42.408;25.634;2022-11-20T16:00:57;38.25;;;5.45;;
34711;SDS011;20941;42.408;25.634;2022-11-20T16:03:23;48.53;;;6.60;;
34711;SDS011;20941;42.408;25.634;2022-11-20T16:05:48;34.90;;;7.03;;
34711;SDS011;20941;42.408;25.634;2022-11-20T16:08:14;32.17;;;4.72;;
34711;SDS011;20941;42.408;25.634;2022-11-20T16:10:40;31.85;;;4.57;;
34711;SDS011;20941;42.408;25.634;2022-11-20T16:13:16;29.20;;;5.20;;
34711;SDS011;20941;42.408;25.634;2022-11-20T16:16:02;33.17;;;5.55;;
34711;SDS011;20941;42.408;25.634;2022-11-20T16:18:30;33.60;;;5.03;;
34711;SDS011;20941;42.408;25.634;2022-11-20T16:20:56;33.17;;;4.97;;
34711;SDS011;20941;42.408;25.634;2022-11-20T16:23:22;31.02;;;5.15;;
34711;SDS011;20941;42.408;25.634;2022-11-20T16:25:49;32.13;;;6.55;;
34711;SDS011;20941;42.408;25.634;2022-11-20T16:28:15;39.72;;;5.28;;
34711;SDS011;20941;42.408;25.634;2022-11-20T16:30:41;25.15;;;5.10;;
34711;SDS011;20941;42.408;25.634;2022-11-20T16:33:10;30.73;;;5.30;;